Time;durP1;ratioP1;P1;durP2;ratioP2;P2;SDS_P1;SDS_P2;PMS_P1;PMS_P2;Temp;Humidity;BMP_temperature;BMP_pressure;BME280_temperature;BME280_humidity;BME280_pressure;Samples;Min_cycle;Max_cycle;Signal;HPM_P1;HPM_P2
2023/07/07 00:01:51;;;;;;;1.60;1.50;;;23.20;40.40;;;;;;4976373;28;20514;-66
2023/07/07 00:04:17;;;;;;;1.33;1.23;;;23.20;40.40;;;;;;4994224;28;20686;-66
2023/07/07 00:06:43;;;;;;;1.40;1.30;;;23.20;40.50;;;;;;4992449;28;20635;-66
2023/07/07 00:09:08;;;;;;;1.60;1.50;;;23.20;40.50;;;;;;4992441;28;20223;-67
2023/07/07 00:11:34;;;;;;;1.57;1.47;;;23.20;40.50;;;;;;4993287;28;20295;-66
2023/07/07 00:13:59;;;;;;;1.60;1.50;;;23.20;40.50;;;;;;4989975;28;20822;-66
2023/07/07 00:16:27;;;;;;;1.50;1.40;;;23.20;40.50;;;;;;4993948;28;20255;-66
2023/07/07 00:18:54;;;;;;;1.63;1.53;;;23.20;40.50;;;;;;4991383;28;20236;-66
2023/07/07 00:21:24;;;;;;;1.70;1.60;;;23.20;40.50;;;;;;4984619;28;20474;-67
2023/07/07 00:23:53;;;;;;;1.40;1.30;;;23.20;40.50;;;;;;4991605;28;20457;-66
2023/07/07 00:26:19;;;;;;;1.47;1.37;;;23.20;40.50;;;;;;4989582;28;20457;-66
2023/07/07 00:28:44;;;;;;;1.40;1.30;;;23.20;40.50;;;;;;4988264;28;20493;-66
2023/07/07 00:31:10;;;;;;;1.70;1.60;;;23.20;40.50;;;;;;4989437;28;20515;-67
2023/07/07 00:33:35;;;;;;;1.50;1.40;;;23.20;40.50;;;;;;4992392;28;20234;-66
2023/07/07 00:36:01;;;;;;;1.50;1.40;;;23.20;40.50;;;;;;4987207;28;20235;-66
2023/07/07 00:38:26;;;;;;;2.03;1.40;;;23.20;40.60;;;;;;4990374;28;20402;-66
2023/07/07 00:40:53;;;;;;;1.40;1.30;;;23.20;40.50;;;;;;4992246;28;20803;-66
2023/07/07 00:43:19;;;;;;;1.40;1.30;;;23.20;40.60;;;;;;4985156;28;20307;-66
2023/07/07 00:45:45;;;;;;;1.70;1.60;;;23.20;40.50;;;;;;4988017;28;20518;-67
2023/07/07 00:48:16;;;;;;;1.60;1.50;;;23.20;40.50;;;;;;4985246;28;20588;-66
2023/07/07 00:50:49;;;;;;;1.60;1.50;;;23.20;40.50;;;;;;4982499;28;20468;-66
2023/07/07 00:53:15;;;;;;;1.30;1.20;;;23.20;40.50;;;;;;4987792;28;20465;-66
2023/07/07 00:55:44;;;;;;;1.70;1.60;;;23.20;40.60;;;;;;4992294;28;20519;-66
2023/07/07 00:58:15;;;;;;;1.50;1.40;;;23.20;40.50;;;;;;4988863;28;20696;-67
2023/07/07 01:00:46;;;;;;;1.50;1.40;;;23.20;40.60;;;;;;4993451;28;20554;-66
2023/07/07 01:03:22;;;;;;;1.60;1.50;;;23.20;40.60;;;;;;4990043;28;20469;-66
2023/07/07 01:05:49;;;;;;;1.33;1.23;;;23.20;40.50;;;;;;4991374;28;20465;-66
2023/07/07 01:08:16;;;;;;;1.60;1.50;;;23.20;40.60;;;;;;4990380;28;20560;-66
2023/07/07 01:10:42;;;;;;;1.73;1.63;;;23.20;40.60;;;;;;4993602;28;20461;-67
2023/07/07 01:13:08;;;;;;;1.93;1.83;;;23.20;40.50;;;;;;4987000;28;20465;-66
2023/07/07 01:15:41;;;;;;;2.93;1.37;;;23.20;40.50;;;;;;4986942;28;20978;-64
2023/07/07 01:18:36;;;;;;;1.50;1.40;;;23.20;40.60;;;;;;4990966;28;20688;-66
2023/07/07 01:21:37;;;;;;;1.70;1.60;;;23.20;40.60;;;;;;4978675;28;20494;-66
2023/07/07 01:24:24;;;;;;;1.50;1.30;;;23.20;40.60;;;;;;4977733;28;20820;-66
2023/07/07 01:27:26;;;;;;;1.50;1.40;;;23.20;40.60;;;;;;4979200;28;20471;-66
2023/07/07 01:30:19;;;;;;;1.40;1.30;;;23.10;40.50;;;;;;4977957;28;20512;-66
2023/07/07 01:32:45;;;;;;;1.63;1.53;;;23.10;40.50;;;;;;4974693;28;21058;-67
2023/07/07 01:35:14;;;;;;;1.60;1.50;;;23.20;40.60;;;;;;4981025;28;20482;-66
2023/07/07 01:37:49;;;;;;;1.60;1.50;;;23.10;40.50;;;;;;4977574;28;20228;-66
2023/07/07 01:40:14;;;;;;;1.60;1.50;;;23.20;41.40;;;;;;4980899;28;20465;-66
2023/07/07 01:42:46;;;;;;;1.53;1.43;;;23.10;40.50;;;;;;4977999;28;20465;-66
2023/07/07 01:45:28;;;;;;;2.40;1.63;;;23.10;40.50;;;;;;4978570;28;20239;-66
2023/07/07 01:48:12;;;;;;;1.60;1.50;;;23.20;40.60;;;;;;4979323;28;20446;-66
2023/07/07 01:50:39;;;;;;;1.77;1.67;;;23.20;40.60;;;;;;4978082;28;20453;-66
2023/07/07 01:53:10;;;;;;;1.67;1.57;;;23.10;40.50;;;;;;4977996;28;20873;-66
2023/07/07 01:55:47;;;;;;;1.67;1.57;;;23.10;40.50;;;;;;4981706;28;20496;-66
2023/07/07 01:58:14;;;;;;;1.70;1.43;;;23.10;40.60;;;;;;4976350;28;20981;-66
2023/07/07 02:00:42;;;;;;;1.53;1.43;;;23.20;40.60;;;;;;4981010;28;20829;-66
2023/07/07 02:03:10;;;;;;;1.50;1.40;;;23.10;40.50;;;;;;4979460;28;20469;-67
2023/07/07 02:05:36;;;;;;;1.70;1.60;;;23.10;40.50;;;;;;4976273;28;20467;-66
2023/07/07 02:08:02;;;;;;;1.70;1.60;;;23.10;40.50;;;;;;4977669;28;20465;-66
2023/07/07 02:10:28;;;;;;;1.33;1.23;;;23.10;40.50;;;;;;4975641;28;20342;-66
2023/07/07 02:12:53;;;;;;;1.53;1.43;;;23.10;40.60;;;;;;4979800;28;21285;-66
2023/07/07 02:15:19;;;;;;;3.73;1.53;;;23.10;40.60;;;;;;4979294;28;20264;-66
2023/07/07 02:17:44;;;;;;;1.67;1.57;;;23.10;40.50;;;;;;4978245;28;20247;-66
2023/07/07 02:20:10;;;;;;;1.50;1.40;;;23.10;40.50;;;;;;4994083;28;20244;-66
2023/07/07 02:22:37;;;;;;;1.50;1.40;;;23.10;40.60;;;;;;4997528;28;20238;-66
2023/07/07 02:25:03;;;;;;;1.40;1.30;;;23.10;40.50;;;;;;4983652;28;20999;-66
2023/07/07 02:27:29;;;;;;;1.67;1.57;;;23.10;40.50;;;;;;4997407;28;20476;-66
2023/07/07 02:29:54;;;;;;;2.33;1.57;;;23.10;40.50;;;;;;5001082;28;20968;-66
2023/07/07 02:32:20;;;;;;;1.50;1.40;;;23.20;40.60;;;;;;4994607;28;20362;-66
2023/07/07 02:34:47;;;;;;;1.40;1.30;;;23.10;40.60;;;;;;4994318;28;20228;-66
2023/07/07 02:37:17;;;;;;;1.70;1.60;;;23.10;40.50;;;;;;4995925;28;20591;-66
2023/07/07 02:39:44;;;;;;;1.40;1.30;;;23.10;40.50;;;;;;4995420;28;20466;-66
2023/07/07 02:42:09;;;;;;;1.43;1.33;;;23.20;41.40;;;;;;4999694;28;20603;-66
2023/07/07 02:44:35;;;;;;;1.70;1.60;;;23.10;40.60;;;;;;4995794;28;20472;-66
2023/07/07 02:47:01;;;;;;;1.60;1.50;;;23.10;40.60;;;;;;4996238;28;20374;-66
2023/07/07 02:49:26;;;;;;;2.13;1.60;;;23.10;41.30;;;;;;4994031;28;20337;-66
2023/07/07 02:51:52;;;;;;;1.70;1.60;;;23.10;40.50;;;;;;4997395;28;20764;-66
2023/07/07 02:54:17;;;;;;;1.50;1.40;;;23.10;40.50;;;;;;4982771;28;20219;-66
2023/07/07 02:56:43;;;;;;;1.60;1.50;;;23.10;40.50;;;;;;4993247;28;20242;-66
2023/07/07 02:59:09;;;;;;;1.43;1.33;;;23.10;40.60;;;;;;4993815;28;20216;-66
2023/07/07 03:01:34;;;;;;;1.50;1.40;;;23.10;40.60;;;;;;4992112;28;20310;-65
2023/07/07 03:04:00;;;;;;;1.40;1.30;;;23.10;40.60;;;;;;4997715;28;20233;-66
2023/07/07 03:06:25;;;;;;;1.50;1.40;;;23.10;40.60;;;;;;4998517;28;20250;-66
2023/07/07 03:08:52;;;;;;;1.50;1.40;;;23.10;40.50;;;;;;4997131;28;20227;-67
2023/07/07 03:11:21;;;;;;;1.50;1.40;;;23.10;40.60;;;;;;4997121;28;20228;-65
2023/07/07 03:13:47;;;;;;;1.40;1.30;;;23.10;40.50;;;;;;4993083;28;20492;-66
2023/07/07 03:16:20;;;;;;;1.97;1.63;;;23.10;40.50;;;;;;4992768;28;20508;-66
2023/07/07 03:18:48;;;;;;;1.50;1.40;;;23.10;40.50;;;;;;4993186;28;20512;-66
2023/07/07 03:21:15;;;;;;;1.67;1.57;;;23.10;40.50;;;;;;4993542;28;20908;-67
2023/07/07 03:23:40;;;;;;;1.77;1.67;;;23.10;40.60;;;;;;4980823;28;20809;-66
2023/07/07 03:26:11;;;;;;;1.50;1.40;;;23.10;40.50;;;;;;4994011;28;20473;-65
2023/07/07 03:28:37;;;;;;;2.00;1.90;;;23.10;40.50;;;;;;4996479;28;20263;-66
2023/07/07 03:31:15;;;;;;;1.57;1.47;;;23.10;40.50;;;;;;4997791;28;20505;-66
2023/07/07 03:33:42;;;;;;;1.70;1.60;;;23.10;40.50;;;;;;4993293;28;20516;-66
2023/07/07 03:36:10;;;;;;;1.60;1.50;;;23.10;40.60;;;;;;4997840;28;20458;-66
2023/07/07 03:38:37;;;;;;;1.43;1.33;;;23.10;40.60;;;;;;4991688;28;20552;-66
2023/07/07 03:41:03;;;;;;;1.30;1.20;;;23.10;40.60;;;;;;4992887;28;20516;-66
2023/07/07 03:43:31;;;;;;;1.70;1.60;;;23.10;40.50;;;;;;4992283;28;20517;-66
2023/07/07 03:45:57;;;;;;;1.57;1.47;;;23.10;40.50;;;;;;4994955;28;20257;-66
2023/07/07 03:48:22;;;;;;;1.80;1.70;;;23.10;40.50;;;;;;4977265;28;20516;-66
2023/07/07 03:50:59;;;;;;;1.47;1.37;;;23.10;41.30;;;;;;4994445;28;20219;-66
2023/07/07 03:53:26;;;;;;;1.40;1.30;;;23.10;40.50;;;;;;4993900;28;20793;-66
2023/07/07 03:55:51;;;;;;;2.07;1.60;;;23.10;40.50;;;;;;4994833;28;20588;-66
2023/07/07 03:58:18;;;;;;;2.17;1.60;;;23.10;40.50;;;;;;4989309;28;20465;-66
2023/07/07 04:00:45;;;;;;;1.50;1.30;;;23.10;40.50;;;;;;4989147;28;20230;-66
2023/07/07 04:03:10;;;;;;;1.70;1.60;;;23.10;40.50;;;;;;4993701;28;20473;-66
2023/07/07 04:05:41;;;;;;;1.67;1.57;;;23.10;40.60;;;;;;4992660;28;20539;-66
2023/07/07 04:08:07;;;;;;;1.90;1.80;;;23.10;40.50;;;;;;4992522;28;20247;-66
2023/07/07 04:10:33;;;;;;;1.93;1.83;;;23.10;40.50;;;;;;4993500;28;20532;-66
2023/07/07 04:12:58;;;;;;;1.60;1.50;;;23.10;40.60;;;;;;4995536;28;20220;-66
2023/07/07 04:15:24;;;;;;;1.60;1.50;;;23.10;40.50;;;;;;4990403;28;20553;-66
2023/07/07 04:17:49;;;;;;;2.70;1.70;;;23.10;40.50;;;;;;4993996;28;20219;-66
2023/07/07 04:20:15;;;;;;;1.53;1.43;;;23.10;40.50;;;;;;4992645;28;20246;-66
2023/07/07 04:22:40;;;;;;;1.60;1.50;;;23.10;40.40;;;;;;4993608;28;20247;-66
2023/07/07 04:25:11;;;;;;;1.50;1.40;;;23.10;40.40;;;;;;4991395;28;20944;-67
2023/07/07 04:27:36;;;;;;;2.00;1.90;;;23.10;40.40;;;;;;4989309;28;20848;-66
2023/07/07 04:30:03;;;;;;;1.73;1.63;;;23.10;40.50;;;;;;4994215;28;20471;-66
2023/07/07 04:32:29;;;;;;;1.73;1.63;;;23.10;40.40;;;;;;4989285;28;20289;-66
2023/07/07 04:34:54;;;;;;;1.63;1.53;;;23.10;40.40;;;;;;4995206;28;20472;-66
2023/07/07 04:37:20;;;;;;;1.63;1.53;;;23.10;40.50;;;;;;4983346;28;20258;-66
2023/07/07 04:39:46;;;;;;;1.80;1.70;;;23.10;40.40;;;;;;4993441;28;20234;-66
2023/07/07 04:42:12;;;;;;;1.90;1.80;;;23.10;40.40;;;;;;4992527;28;20302;-66
2023/07/07 04:44:37;;;;;;;1.80;1.70;;;23.10;40.40;;;;;;4995454;28;20592;-66
2023/07/07 04:47:03;;;;;;;1.87;1.77;;;23.10;40.30;;;;;;4992652;28;20234;-65
2023/07/07 04:49:28;;;;;;;1.90;1.80;;;23.10;40.30;;;;;;4991353;28;20743;-66
2023/07/07 04:51:54;;;;;;;2.07;1.97;;;23.10;40.30;;;;;;4991327;28;20610;-66
2023/07/07 04:54:19;;;;;;;1.60;1.50;;;23.10;40.30;;;;;;4991143;28;20219;-66
2023/07/07 04:56:45;;;;;;;1.67;1.57;;;23.10;40.30;;;;;;4984234;28;20231;-66
2023/07/07 04:59:10;;;;;;;2.43;2.00;;;23.10;40.30;;;;;;4990783;28;20347;-69
2023/07/07 05:01:37;;;;;;;1.93;1.70;;;23.10;40.30;;;;;;4991168;28;20223;-67
2023/07/07 05:04:04;;;;;;;1.57;1.47;;;23.10;40.40;;;;;;4985033;28;20294;-69
2023/07/07 05:06:31;;;;;;;1.70;1.60;;;23.20;40.50;;;;;;4991245;28;20965;-66
2023/07/07 05:08:57;;;;;;;1.60;1.50;;;23.10;40.30;;;;;;4986229;28;20527;-66
2023/07/07 05:11:25;;;;;;;1.77;1.67;;;23.10;40.40;;;;;;4992948;28;20991;-66
2023/07/07 05:13:52;;;;;;;2.50;1.60;;;23.10;40.30;;;;;;4989034;28;20558;-67
2023/07/07 05:16:20;;;;;;;1.60;1.50;;;23.20;40.50;;;;;;4990736;28;20649;-66
2023/07/07 05:18:46;;;;;;;1.60;1.50;;;23.10;40.40;;;;;;4983240;28;20467;-66
2023/07/07 05:21:13;;;;;;;1.70;1.57;;;23.20;40.50;;;;;;4969602;28;20987;-67
2023/07/07 05:23:39;;;;;;;2.00;1.90;;;23.20;40.50;;;;;;4985250;28;20313;-66
2023/07/07 05:26:06;;;;;;;1.73;1.63;;;23.20;40.50;;;;;;4982849;28;20460;-67
2023/07/07 05:28:32;;;;;;;1.77;1.67;;;23.20;40.50;;;;;;4982957;28;20548;-66
2023/07/07 05:30:58;;;;;;;1.90;1.80;;;23.20;40.50;;;;;;4985551;28;20496;-67
2023/07/07 05:33:25;;;;;;;1.73;1.63;;;23.20;40.60;;;;;;4974018;28;20457;-67
2023/07/07 05:35:53;;;;;;;1.30;1.20;;;23.20;40.50;;;;;;4975251;28;20242;-67
2023/07/07 05:38:21;;;;;;;2.03;1.93;;;23.20;41.30;;;;;;4978650;28;20593;-67
2023/07/07 05:40:47;;;;;;;1.80;1.70;;;23.20;40.60;;;;;;4979282;28;20468;-67
2023/07/07 05:43:14;;;;;;;1.63;1.53;;;23.20;40.60;;;;;;4982053;28;20779;-67
2023/07/07 05:45:39;;;;;;;1.70;1.60;;;23.20;40.50;;;;;;4984739;28;20750;-67
2023/07/07 05:48:05;;;;;;;1.60;1.50;;;23.20;40.50;;;;;;4978626;28;20468;-67
2023/07/07 05:50:31;;;;;;;1.73;1.63;;;23.20;40.50;;;;;;4985510;28;20227;-66
2023/07/07 05:52:57;;;;;;;1.90;1.80;;;23.20;41.20;;;;;;4973262;28;20475;-67
2023/07/07 05:55:28;;;;;;;1.60;1.50;;;23.20;40.50;;;;;;4991015;28;20274;-69
2023/07/07 05:57:54;;;;;;;1.87;1.77;;;23.20;40.40;;;;;;4990955;28;20243;-68
2023/07/07 06:00:20;;;;;;;2.80;1.80;;;23.20;40.40;;;;;;4987934;28;20473;-68
2023/07/07 06:02:45;;;;;;;2.23;2.00;;;23.20;40.50;;;;;;4975271;28;20464;-68
2023/07/07 06:05:11;;;;;;;2.17;1.67;;;23.20;40.50;;;;;;4990238;28;20927;-69
2023/07/07 06:07:36;;;;;;;3.10;1.73;;;23.20;40.50;;;;;;4991635;28;20238;-68
2023/07/07 06:10:02;;;;;;;1.70;1.60;;;23.20;40.50;;;;;;4995232;28;22268;-68
2023/07/07 06:12:28;;;;;;;2.00;1.90;;;23.20;40.50;;;;;;4985891;28;20216;-68
2023/07/07 06:14:54;;;;;;;1.77;1.67;;;23.20;40.40;;;;;;4988258;28;20875;-68
2023/07/07 06:17:19;;;;;;;1.80;1.70;;;23.20;40.50;;;;;;4986472;28;20270;-68
2023/07/07 06:19:45;;;;;;;1.67;1.57;;;23.20;40.50;;;;;;4963782;28;20321;-68
2023/07/07 06:22:10;;;;;;;3.37;1.73;;;23.20;40.40;;;;;;4986186;28;20240;-68
2023/07/07 06:24:36;;;;;;;2.10;1.90;;;23.20;40.40;;;;;;4984820;28;20231;-68
2023/07/07 06:27:01;;;;;;;3.50;2.03;;;23.20;40.30;;;;;;4989450;28;20232;-68
2023/07/07 06:29:27;;;;;;;3.00;2.07;;;23.20;40.30;;;;;;4992457;28;20896;-68
2023/07/07 06:31:52;;;;;;;3.73;1.80;;;23.20;40.30;;;;;;4995588;28;21183;-67
2023/07/07 06:34:18;;;;;;;1.80;1.70;;;23.20;40.30;;;;;;4988352;28;20883;-67
2023/07/07 06:36:43;;;;;;;2.40;1.70;;;23.20;40.20;;;;;;4994874;28;20255;-67
2023/07/07 06:39:09;;;;;;;2.00;1.90;;;23.20;40.20;;;;;;4996094;28;21565;-67
2023/07/07 06:41:34;;;;;;;2.23;2.10;;;23.20;40.20;;;;;;4990273;28;20220;-68
2023/07/07 06:44:00;;;;;;;2.13;1.93;;;23.20;40.20;;;;;;4990320;28;20808;-68
2023/07/07 06:46:26;;;;;;;1.97;1.87;;;23.20;40.20;;;;;;4981201;28;20228;-68
2023/07/07 06:48:51;;;;;;;2.23;1.70;;;23.20;40.30;;;;;;4983471;28;20231;-68
2023/07/07 06:51:18;;;;;;;1.83;1.73;;;23.20;40.20;;;;;;4982123;28;20457;-68
2023/07/07 06:53:44;;;;;;;1.80;1.70;;;23.20;40.30;;;;;;4983382;28;20912;-67
2023/07/07 06:56:10;;;;;;;1.70;1.60;;;23.20;40.20;;;;;;4981929;28;20502;-68
2023/07/07 06:58:36;;;;;;;2.00;1.90;;;23.20;40.20;;;;;;4984324;28;21302;-68
2023/07/07 07:01:01;;;;;;;1.83;1.73;;;23.20;40.20;;;;;;4980112;28;20314;-68
2023/07/07 07:03:28;;;;;;;1.90;1.80;;;23.20;40.20;;;;;;4982009;28;20691;-68
2023/07/07 07:05:54;;;;;;;2.67;1.60;;;23.20;40.20;;;;;;4988706;28;20220;-68
2023/07/07 07:08:20;;;;;;;2.37;2.00;;;23.20;40.20;;;;;;4992925;28;20961;-68
2023/07/07 07:10:46;;;;;;;1.83;1.70;;;23.20;40.20;;;;;;4992299;28;20452;-68
2023/07/07 07:13:12;;;;;;;2.10;1.90;;;23.20;40.20;;;;;;4994229;28;21106;-68
2023/07/07 07:15:37;;;;;;;2.07;1.97;;;23.20;40.20;;;;;;4994328;28;20779;-66
2023/07/07 07:18:03;;;;;;;1.90;1.80;;;23.20;40.20;;;;;;4994170;28;20687;-69
2023/07/07 07:20:28;;;;;;;2.30;2.10;;;23.20;40.30;;;;;;4994194;28;20619;-69
2023/07/07 07:22:54;;;;;;;2.13;1.70;;;23.20;40.20;;;;;;4981798;28;20227;-68
2023/07/07 07:25:19;;;;;;;1.70;1.60;;;23.20;40.20;;;;;;4993359;28;20644;-69
2023/07/07 07:27:45;;;;;;;1.90;1.80;;;23.20;40.20;;;;;;4994764;28;21064;-68
2023/07/07 07:30:12;;;;;;;1.87;1.70;;;23.20;40.20;;;;;;4996179;28;20231;-69
2023/07/07 07:32:38;;;;;;;1.80;1.70;;;23.20;40.20;;;;;;4994767;28;20258;-68
2023/07/07 07:35:04;;;;;;;1.90;1.80;;;23.20;40.20;;;;;;4996290;28;20476;-68
2023/07/07 07:37:30;;;;;;;3.90;1.60;;;23.20;40.30;;;;;;4987949;28;20563;-68
2023/07/07 07:39:55;;;;;;;1.57;1.47;;;23.20;40.20;;;;;;4993930;28;20461;-68
2023/07/07 07:42:21;;;;;;;2.40;1.63;;;23.20;40.20;;;;;;4992563;28;20290;-68
2023/07/07 07:44:46;;;;;;;3.00;1.70;;;23.20;40.30;;;;;;4982727;28;20872;-68
2023/07/07 07:47:12;;;;;;;1.80;1.70;;;23.20;40.20;;;;;;4990700;28;20219;-68
2023/07/07 07:49:37;;;;;;;2.00;1.90;;;23.20;40.20;;;;;;4984345;28;20239;-68
2023/07/07 07:52:03;;;;;;;1.77;1.60;;;23.20;40.20;;;;;;4987383;28;20667;-68
2023/07/07 07:54:29;;;;;;;2.00;1.80;;;23.20;40.20;;;;;;4986659;28;20234;-68
2023/07/07 07:56:54;;;;;;;1.67;1.57;;;23.20;40.20;;;;;;4982975;28;20220;-68
2023/07/07 07:59:20;;;;;;;1.70;1.60;;;23.20;40.20;;;;;;4985017;28;20292;-68
2023/07/07 08:01:46;;;;;;;1.90;1.80;;;23.20;40.20;;;;;;4985092;28;21737;-68
2023/07/07 08:04:11;;;;;;;2.30;1.67;;;23.20;40.20;;;;;;4989363;28;20250;-69
2023/07/07 08:06:37;;;;;;;2.40;1.80;;;23.20;40.10;;;;;;4993391;28;20698;-69
2023/07/07 08:09:03;;;;;;;1.80;1.60;;;23.20;40.10;;;;;;4993853;28;20646;-68
2023/07/07 08:11:41;;;;;;;1.50;1.40;;;23.20;40.10;;;;;;4991770;28;20217;-69
2023/07/07 08:14:10;;;;;;;1.53;1.43;;;23.20;40.20;;;;;;4990136;28;20471;-69
2023/07/07 08:16:36;;;;;;;1.80;1.70;;;23.20;40.10;;;;;;4989000;28;21076;-69
2023/07/07 08:19:01;;;;;;;1.67;1.57;;;23.20;40.10;;;;;;4993050;28;20470;-68
2023/07/07 08:21:27;;;;;;;1.87;1.53;;;23.20;40.10;;;;;;4992706;28;21419;-69
2023/07/07 08:23:52;;;;;;;1.93;1.83;;;23.20;40.10;;;;;;4992917;28;20601;-68
2023/07/07 08:26:18;;;;;;;1.77;1.67;;;23.20;40.10;;;;;;4993520;28;20231;-68
2023/07/07 08:28:43;;;;;;;1.80;1.70;;;23.20;40.10;;;;;;4992029;28;20680;-68
2023/07/07 08:31:09;;;;;;;1.97;1.77;;;23.20;40.10;;;;;;4993916;28;20314;-70
2023/07/07 08:33:34;;;;;;;1.70;1.60;;;23.20;40.10;;;;;;4989890;28;20255;-69
2023/07/07 08:36:00;;;;;;;1.73;1.43;;;23.20;40.20;;;;;;4986399;28;20242;-68
2023/07/07 08:38:25;;;;;;;1.70;1.60;;;23.20;40.30;;;;;;4990289;28;20370;-70
2023/07/07 08:40:54;;;;;;;1.60;1.50;;;23.20;40.10;;;;;;4985583;28;20667;-69
2023/07/07 08:43:21;;;;;;;2.30;1.50;;;23.20;40.20;;;;;;4987365;28;20231;-70
2023/07/07 08:45:59;;;;;;;1.80;1.70;;;23.20;40.20;;;;;;4988900;28;21349;-70
2023/07/07 08:49:04;;;;;;;2.63;1.67;;;23.20;40.20;;;;;;4988321;28;20580;-69
2023/07/07 08:51:39;;;;;;;1.60;1.50;;;23.20;40.20;;;;;;4912472;29;20481;-68
2023/07/07 08:54:32;;;;;;;1.50;1.40;;;23.20;40.20;;;;;;4977680;28;20941;-69
2023/07/07 08:57:07;;;;;;;1.70;1.60;;;23.30;40.30;;;;;;4993132;28;20479;-69
2023/07/07 08:59:48;;;;;;;2.50;1.57;;;23.20;40.20;;;;;;4993883;28;20453;-68
2023/07/07 09:02:29;;;;;;;1.60;1.50;;;23.30;40.30;;;;;;4989025;28;20512;-68
2023/07/07 09:05:34;;;;;;;1.80;1.70;;;23.30;40.30;;;;;;4990780;28;20465;-68
2023/07/07 09:08:36;;;;;;;1.43;1.33;;;23.30;40.30;;;;;;4994634;28;20456;-68
2023/07/07 09:11:07;;;;;;;2.90;1.70;;;23.30;40.30;;;;;;4987959;28;20473;-68
2023/07/07 09:13:35;;;;;;;1.60;1.50;;;23.30;40.30;;;;;;4993579;28;21745;-68
2023/07/07 09:16:49;;;;;;;1.60;1.50;;;23.30;40.30;;;;;;4992713;28;20889;-68
2023/07/07 09:19:25;;;;;;;4.40;1.30;;;23.30;40.30;;;;;;4975944;28;20849;-68
2023/07/07 09:21:56;;;;;;;1.50;1.40;;;23.30;40.30;;;;;;4992612;28;20453;-68
2023/07/07 09:24:33;;;;;;;2.17;1.50;;;23.30;40.30;;;;;;4993717;28;20457;-68
2023/07/07 09:27:23;;;;;;;1.67;1.57;;;23.30;40.20;;;;;;4995859;28;20465;-68
2023/07/07 09:30:02;;;;;;;1.83;1.73;;;23.30;40.30;;;;;;4988668;28;20457;-69
2023/07/07 09:32:27;;;;;;;2.33;1.73;;;23.30;40.30;;;;;;4983665;28;20463;-68
2023/07/07 09:34:54;;;;;;;1.70;1.60;;;23.30;40.30;;;;;;4978936;28;20829;-69
2023/07/07 09:37:29;;;;;;;2.73;1.60;;;23.30;40.30;;;;;;4984390;28;20231;-68
2023/07/07 09:40:17;;;;;;;1.50;1.40;;;23.30;40.30;;;;;;4978736;28;20476;-69
2023/07/07 09:43:03;;;;;;;1.53;1.43;;;23.30;41.10;;;;;;4985345;28;20475;-70
2023/07/07 09:45:47;;;;;;;1.60;1.50;;;23.30;40.30;;;;;;4991838;28;20504;-71
2023/07/07 09:48:19;;;;;;;1.50;1.40;;;23.30;40.30;;;;;;4986550;28;20892;-69
2023/07/07 09:50:49;;;;;;;2.40;1.50;;;23.30;40.30;;;;;;4986390;28;20788;-69
2023/07/07 09:53:33;;;;;;;1.30;1.20;;;23.30;40.30;;;;;;4992302;28;20473;-69
2023/07/07 09:55:58;;;;;;;1.40;1.30;;;23.30;40.30;;;;;;4978440;28;21143;-69
2023/07/07 09:58:33;;;;;;;1.60;1.50;;;23.30;40.30;;;;;;4987910;28;20460;-70
2023/07/07 10:01:02;;;;;;;1.60;1.50;;;23.30;40.30;;;;;;4988700;28;20226;-69
2023/07/07 10:03:43;;;;;;;1.53;1.43;;;23.30;40.30;;;;;;4990779;28;20468;-69
2023/07/07 10:06:34;;;;;;;1.37;1.27;;;23.30;40.30;;;;;;4996359;28;20491;-69
2023/07/07 10:09:00;;;;;;;1.63;1.53;;;23.30;40.30;;;;;;4993806;28;20452;-69
2023/07/07 10:11:37;;;;;;;1.60;1.50;;;23.30;40.30;;;;;;4982692;28;20827;-69
2023/07/07 10:14:09;;;;;;;1.87;1.40;;;23.30;40.30;;;;;;4974039;28;20825;-69
2023/07/07 10:16:55;;;;;;;4.80;1.20;;;23.30;40.20;;;;;;4989369;28;20584;-68
2023/07/07 10:19:22;;;;;;;1.63;1.53;;;23.40;40.30;;;;;;4960747;28;20563;-68
2023/07/07 10:21:48;;;;;;;1.53;1.43;;;23.40;40.30;;;;;;4991454;28;20694;-68
2023/07/07 10:24:14;;;;;;;1.47;1.37;;;23.40;40.30;;;;;;4999798;28;20455;-68
2023/07/07 10:26:44;;;;;;;1.40;1.30;;;23.40;40.30;;;;;;4995751;28;20231;-68
2023/07/07 10:29:16;;;;;;;1.57;1.30;;;23.40;40.30;;;;;;4993556;28;20448;-66
2023/07/07 10:31:44;;;;;;;1.50;1.40;;;23.40;40.30;;;;;;4994223;28;20456;-68
2023/07/07 10:34:30;;;;;;;1.70;1.60;;;23.40;40.30;;;;;;4993925;28;20451;-69
2023/07/07 10:36:57;;;;;;;1.47;1.37;;;23.40;40.30;;;;;;4995138;28;20472;-68
2023/07/07 10:39:25;;;;;;;1.70;1.47;;;23.40;40.30;;;;;;4996644;28;20469;-68
2023/07/07 10:41:51;;;;;;;1.80;1.70;;;23.40;40.20;;;;;;4995114;28;20517;-69
2023/07/07 10:44:16;;;;;;;1.77;1.67;;;23.40;40.20;;;;;;4992908;28;20468;-69
2023/07/07 10:46:42;;;;;;;1.50;1.40;;;23.40;40.20;;;;;;4991164;28;20710;-70
2023/07/07 10:49:15;;;;;;;1.53;1.43;;;23.40;40.20;;;;;;4999623;28;20220;-69
2023/07/07 10:52:06;;;;;;;1.93;1.83;;;23.40;40.20;;;;;;4993986;28;20314;-69
2023/07/07 10:54:46;;;;;;;1.60;1.50;;;23.40;40.20;;;;;;4996548;28;20539;-69
2023/07/07 10:57:28;;;;;;;1.70;1.60;;;23.40;40.20;;;;;;4994550;28;20994;-69
2023/07/07 10:59:58;;;;;;;1.50;1.40;;;23.40;40.20;;;;;;4998424;28;20475;-67
2023/07/07 11:02:35;;;;;;;1.80;1.33;;;23.40;40.20;;;;;;4999022;28;20484;-66
2023/07/07 11:05:04;;;;;;;1.83;1.73;;;23.40;40.20;;;;;;4993403;28;20895;-68
2023/07/07 11:07:51;;;;;;;1.50;1.40;;;23.40;40.20;;;;;;4990812;28;20985;-66
2023/07/07 11:10:35;;;;;;;1.60;1.50;;;23.40;40.10;;;;;;4984284;28;20625;-71
2023/07/07 11:13:08;;;;;;;1.60;1.50;;;23.40;40.20;;;;;;4988878;28;20523;-68
2023/07/07 11:15:50;;;;;;;2.93;1.67;;;23.40;40.10;;;;;;4993890;28;20449;-65
2023/07/07 11:18:47;;;;;;;2.10;1.57;;;23.40;40.10;;;;;;4996083;28;20473;-66
2023/07/07 11:21:38;;;;;;;1.90;1.60;;;23.40;40.10;;;;;;4993489;28;20468;-64
2023/07/07 11:24:13;;;;;;;1.70;1.30;;;23.40;40.20;;;;;;4995309;28;20496;-66
2023/07/07 11:27:16;;;;;;;1.80;1.70;;;23.40;40.20;;;;;;4994742;28;20468;-67
2023/07/07 11:30:03;;;;;;;4.83;1.57;;;23.40;40.20;;;;;;4996667;28;20948;-67
2023/07/07 11:32:50;;;;;;;3.30;1.67;;;23.40;40.10;;;;;;4991989;28;20469;-65
2023/07/07 11:35:38;;;;;;;2.13;1.80;;;23.40;40.20;;;;;;4987483;28;20469;-64
2023/07/07 11:38:22;;;;;;;3.47;1.60;;;23.40;40.10;;;;;;4992669;28;20498;-64
2023/07/07 11:41:18;;;;;;;1.70;1.60;;;23.40;40.20;;;;;;4990779;28;21103;-65
2023/07/07 11:43:58;;;;;;;1.93;1.63;;;23.40;40.20;;;;;;4991966;28;20464;-64
2023/07/07 11:46:48;;;;;;;2.23;1.60;;;23.40;40.20;;;;;;4997459;28;20469;-70
2023/07/07 11:49:22;;;;;;;1.93;1.40;;;23.50;40.20;;;;;;4989397;28;20520;-64
2023/07/07 11:52:15;;;;;;;1.93;1.83;;;23.40;40.10;;;;;;4986308;28;20468;-66
2023/07/07 11:54:50;;;;;;;1.60;1.50;;;23.50;40.20;;;;;;4994152;28;20480;-66
2023/07/07 11:57:31;;;;;;;1.70;1.60;;;23.50;40.10;;;;;;4989137;28;20990;-65
2023/07/07 12:00:12;;;;;;;1.60;1.50;;;23.50;40.00;;;;;;4981982;28;20469;-69
2023/07/07 12:02:54;;;;;;;1.53;1.43;;;23.40;39.80;;;;;;4988529;28;20470;-64
2023/07/07 12:05:39;;;;;;;1.50;1.40;;;23.50;39.90;;;;;;4984366;28;20480;-64
2023/07/07 12:08:16;;;;;;;1.70;1.60;;;23.50;39.80;;;;;;4992429;28;20956;-64
2023/07/07 12:10:48;;;;;;;1.90;1.80;;;23.50;39.80;;;;;;4994442;28;20449;-67
2023/07/07 12:13:25;;;;;;;3.83;1.50;;;23.50;39.90;;;;;;4988496;28;20506;-64
2023/07/07 12:16:01;;;;;;;1.77;1.67;;;23.50;39.80;;;;;;4990027;28;20531;-64
2023/07/07 12:18:31;;;;;;;1.70;1.60;;;23.50;39.80;;;;;;4988386;28;20835;-63
2023/07/07 12:21:16;;;;;;;1.90;1.80;;;23.50;39.80;;;;;;4991221;28;20897;-66
2023/07/07 12:24:07;;;;;;;1.50;1.40;;;23.50;39.80;;;;;;4994367;28;20469;-65
2023/07/07 12:26:42;;;;;;;1.50;1.40;;;23.50;39.70;;;;;;4986636;28;20886;-66
2023/07/07 12:29:12;;;;;;;1.40;1.30;;;23.50;39.70;;;;;;4989024;28;20448;-63
2023/07/07 12:31:37;;;;;;;2.70;1.70;;;23.50;39.60;;;;;;4987567;28;20878;-64
2023/07/07 12:34:37;;;;;;;1.70;1.60;;;23.50;39.50;;;;;;4990459;28;20481;-66
2023/07/07 12:37:12;;;;;;;4.73;1.60;;;23.50;39.50;;;;;;4993980;28;20243;-66
2023/07/07 12:39:48;;;;;;;1.60;1.50;;;23.50;39.60;;;;;;4993724;28;20460;-66
2023/07/07 12:42:15;;;;;;;1.60;1.50;;;23.50;39.60;;;;;;4986800;28;20465;-69
2023/07/07 12:44:41;;;;;;;1.50;1.40;;;23.50;39.70;;;;;;4991028;28;20457;-70
2023/07/07 12:47:30;;;;;;;1.90;1.73;;;23.50;39.70;;;;;;4987477;28;20468;-66
2023/07/07 12:49:59;;;;;;;1.50;1.40;;;23.50;39.70;;;;;;4992839;28;20216;-64
2023/07/07 12:52:29;;;;;;;1.83;1.73;;;23.50;39.70;;;;;;4991161;28;21028;-65
2023/07/07 12:55:06;;;;;;;1.87;1.77;;;23.50;39.70;;;;;;4991266;28;20469;-67
2023/07/07 12:57:31;;;;;;;1.50;1.40;;;23.50;39.60;;;;;;4990582;28;20507;-64
2023/07/07 13:00:31;;;;;;;1.60;1.50;;;23.50;39.60;;;;;;4994505;28;21095;-67
2023/07/07 13:03:08;;;;;;;1.70;1.60;;;23.50;39.60;;;;;;4992076;28;20231;-66
2023/07/07 13:05:41;;;;;;;1.50;1.40;;;23.50;39.60;;;;;;4989102;28;20949;-68
2023/07/07 13:08:07;;;;;;;1.70;1.60;;;23.50;39.70;;;;;;4989533;28;20457;-67